Latest Weather Observations for Geelong Racecourse

IDV60901

Issued at 6:21 am EDT Wednesday 13 November 2019 (issued every 10 minutes, with the page automatically refreshed every 10 minutes)

About weather observations | Map of Melbourne area stations | Latest observations for Melbourne area | Other Formats
Station Details ID: 087184 Name: GEELONG RACECOURSE Lat: -38.17 Lon: 144.38 Height: 12.9 m
Data from the previous 72 hours. | See also: Recent months at Geelong Racecourse
Date/Time
EDT
Temp
°C
App
Temp
°C
Dew
Point
°C
Rel
Hum
%
Delta-T
°C
Wind Press
QNH
hPa
Press
MSL
hPa
Rain since
9am
mm
Dir  Spd
km/h
Gust
km/h
Spd
kts
Gust
kts
13/06:00am 8.1 4.2 7.2 94 0.4 WNW 17 24 9 13 1014.7 1014.7 0.8
13/05:30am 8.0 4.9 7.1 94 0.4 WNW 13 19 7 10 1014.8 1014.8 0.8
13/05:00am 8.0 4.5 7.1 94 0.4 WNW 15 22 8 12 1014.6 1014.6 0.8
13/04:30am 8.0 4.5 7.1 94 0.4 WNW 15 20 8 11 1014.7 1014.7 0.8
13/04:00am 7.9 4.7 7.0 94 0.4 NW 13 22 7 12 1014.7 1014.7 0.8
13/03:30am 8.1 4.6 7.2 94 0.4 WNW 15 24 8 13 1015.0 1015.0 0.8
13/03:00am 7.9 4.7 7.0 94 0.4 WNW 13 19 7 10 1015.2 1015.2 0.8
13/02:30am 7.6 4.4 6.7 94 0.4 WNW 13 19 7 10 1015.3 1015.3 0.8
13/02:00am 7.9 4.0 7.0 94 0.4 WNW 17 32 9 17 1015.3 1015.3 0.8
13/01:30am 7.8 3.4 6.7 93 0.5 WNW 19 28 10 15 1015.3 1015.3 0.8
13/01:00am 7.7 4.1 6.6 93 0.5 WNW 15 24 8 13 1015.3 1015.3 0.8
13/12:30am 7.8 4.6 6.7 93 0.5 WNW 13 19 7 10 1015.7 1015.7 0.8
13/12:00am 8.1 4.9 6.9 92 0.6 WNW 13 19 7 10 1015.5 1015.5 0.8
 
Date/Time
EDT
Temp
°C
App
Temp
°C
Dew
Point
°C
Rel
Hum
%
Delta-T
°C
Wind Press
QNH
hPa
Press
MSL
hPa
Rain since
9am
mm
Dir  Spd
km/h
Gust
km/h
Spd
kts
Gust
kts
12/11:30pm 7.9 5.0 6.7 92 0.6 WNW 11 17 6 9 1015.4 1015.4 0.8
12/11:00pm 8.4 5.1 6.5 88 0.9 WNW 13 20 7 11 1015.3 1015.3 0.8
12/10:30pm 8.5 4.8 6.3 86 1.0 W 15 22 8 12 1015.4 1015.4 0.8
12/10:00pm 9.0 4.7 7.0 87 0.9 W 19 32 10 17 1015.0 1015.0 0.8
12/09:30pm 9.0 4.6 7.3 89 0.8 WNW 20 32 11 17 1014.4 1014.4 0.8
12/09:00pm 9.1 6.2 6.5 84 1.2 W 11 17 6 9 1014.0 1014.0 0.8
12/08:30pm 9.4 5.8 6.7 83 1.3 W 15 22 8 12 1013.6 1013.6 0.8
12/08:00pm 9.6 5.2 7.5 87 1.0 W 20 33 11 18 1013.1 1013.1 0.8
12/07:30pm 10.4 4.7 6.5 77 1.8 W 26 43 14 23 1012.8 1012.8 0.6
12/07:00pm 11.1 5.0 6.5 73 2.2 W 28 48 15 26 1012.0 1012.0 0.4
12/06:52pm 10.7 2.3 5.7 71 2.3 W 39 63 21 34 1011.8 1011.8 0.4
12/06:48pm 10.8 3.2 5.6 70 2.4 WSW 35 63 19 34 1011.9 1011.9 0.4
12/06:44pm 11.8 5.5 5.7 66 2.8 SW 28 46 15 25 1011.7 1011.7 0.4
12/06:30pm 12.3 6.8 5.7 64 3.1 WSW 24 35 13 19 1011.4 1011.4 0.2
12/06:00pm 14.2 7.5 5.6 56 4.1 W 30 48 16 26 1011.1 1011.1 0.2
12/05:30pm 13.0 4.5 5.2 59 3.6 W 39 65 21 35 1010.8 1010.8 0.2
12/05:21pm 13.2 6.0 5.1 58 3.8 W 32 50 17 27 1010.7 1010.7 0.2
12/05:00pm 13.2 6.1 7.9 70 2.6 WSW 35 52 19 28 1010.6 1010.6 0.2
12/04:37pm 13.9 6.0 6.0 59 3.8 WSW 37 57 20 31 1010.1 1010.1 0.2
12/04:30pm 14.2 6.8 6.6 60 3.7 W 35 52 19 28 1010.0 1010.0 0.2
12/04:24pm 14.1 7.4 7.4 64 3.3 W 32 50 17 27 1009.8 1009.8 0.2
12/04:00pm 12.1 2.7 5.5 64 3.1 WSW 44 61 24 33 1010.2 1010.2 0.0
12/03:33pm 16.3 8.9 5.0 47 5.4 WSW 33 56 18 30 1009.5 1009.5 0.0
12/03:30pm 15.9 8.4 4.6 47 5.3 WSW 33 48 18 26 1009.3 1009.3 0.0
12/03:05pm 16.1 8.0 5.4 49 5.1 WSW 37 56 20 30 1009.4 1009.4 0.0
12/03:00pm 15.6 7.0 4.6 48 5.2 WSW 39 57 21 31 1009.5 1009.5 0.0
12/02:45pm 16.0 9.1 4.7 47 5.3 WSW 30 50 16 27 1009.2 1009.2 0.0
12/02:30pm 15.7 9.4 7.2 57 4.2 W 30 41 16 22 1009.3 1009.3 0.0
12/02:26pm 14.6 8.5 6.7 59 3.8 WSW 28 41 15 22 1009.3 1009.3 0.0
12/02:00pm 15.7 7.9 6.7 55 4.4 WSW 37 57 20 31 1009.5 1009.5 0.0
12/01:33pm 15.9 9.6 5.5 50 5.0 W 28 50 15 27 1009.3 1009.3 0.0
12/01:30pm 16.0 10.2 6.4 53 4.7 WSW 26 39 14 21 1009.2 1009.2 0.0
12/01:03pm 12.8 7.3 9.1 78 1.9 W 28 48 15 26 1009.7 1009.7 0.0
12/01:00pm 12.5 5.8 8.2 75 2.1 W 33 48 18 26 1009.7 1009.7 0.0
12/12:33pm 14.4 8.2 6.0 57 4.0 WSW 28 46 15 25 1009.3 1009.3 0.0
12/12:30pm 15.0 8.2 5.2 52 4.6 WSW 30 46 16 25 1009.3 1009.3 0.0
12/12:23pm 16.0 10.4 5.3 49 5.1 W 24 46 13 25 1009.3 1009.3 0.0
12/12:00pm 15.3 8.4 4.7 49 5.0 WSW 30 43 16 23 1009.3 1009.3 0.0
12/11:32am 14.6 8.3 5.9 56 4.2 W 28 50 15 27 1009.4 1009.4 0.0
12/11:30am 15.3 9.4 5.8 53 4.6 W 26 41 14 22 1009.1 1009.1 0.0
12/11:00am 15.6 10.0 5.5 51 4.8 W 24 33 13 18 1008.9 1008.9 0.0
12/10:30am 14.2 8.9 4.8 53 4.4 WSW 22 35 12 19 1008.9 1008.9 0.0
12/10:00am 14.6 8.7 5.9 56 4.2 W 26 39 14 21 1008.7 1008.7 0.0
12/09:30am 12.4 6.9 6.0 65 3.0 WSW 24 35 13 19 1008.6 1008.6 0.0
12/09:00am 12.4 8.2 8.3 76 2.0 W 20 32 11 17 1008.5 1008.5 0.0
12/08:30am 11.5 7.5 9.2 86 1.2 W 20 32 11 17 1008.2 1008.2 0.0
12/08:00am 11.8 8.1 7.9 77 1.9 W 17 28 9 15 1007.6 1007.6 0.0
12/07:30am 11.6 7.5 7.7 77 1.9 W 19 26 10 14 1007.2 1007.2 0.0
12/07:00am 11.2 8.4 8.6 84 1.3 W 13 19 7 10 1006.7 1006.7 0.0
12/06:30am 11.1 8.6 8.3 83 1.4 W 11 17 6 9 1006.3 1006.3 0.0
12/06:00am 11.7 7.2 8.6 81 1.5 W 22 32 12 17 1005.6 1005.6 0.0
12/05:30am 12.5 9.6 9.5 82 1.5 WSW 15 24 8 13 1005.1 1005.1 0.0
12/05:00am 12.3 9.4 10.9 91 0.7 SW 17 24 9 13 1004.5 1004.5 0.0
12/04:30am 12.2 7.6 11.1 93 0.6 SSW 26 35 14 19 1003.9 1003.9 0.0
12/04:00am 12.9 8.5 11.8 93 0.6 SW 26 39 14 21 1003.1 1003.1 0.0
12/03:30am 14.6 12.3 13.1 91 0.8 SW 17 26 9 14 1002.7 1002.7 0.0
12/03:00am 15.0 12.2 11.4 79 1.9 WSW 17 26 9 14 1002.2 1002.2 0.0
12/02:30am 15.7 12.7 10.5 71 2.7 WSW 17 28 9 15 1001.3 1001.3 0.0
12/02:00am 16.1 12.7 10.4 69 3.0 W 19 32 10 17 1000.6 1000.6 0.0
12/01:30am 15.2 13.5 11.2 77 2.1 SW 11 17 6 9 999.6 999.6 0.0
12/01:00am 15.8 14.9 11.4 75 2.4 NNE 7 13 4 7 999.6 999.6 0.0
12/12:30am 16.2 15.3 10.7 70 2.9 SE 6 9 3 5 1000.2 1000.2 0.0
12/12:00am 20.3 16.9 7.7 44 6.5 WSW 15 24 8 13 1001.0 1001.0 0.0
 
Date/Time
EDT
Temp
°C
App
Temp
°C
Dew
Point
°C
Rel
Hum
%
Delta-T
°C
Wind Press
QNH
hPa
Press
MSL
hPa
Rain since
9am
mm
Dir  Spd
km/h
Gust
km/h
Spd
kts
Gust
kts
11/11:30pm 24.1 19.7 2.9 25 10.2 NW 15 26 8 14 1000.7 1000.7 0.0
11/11:00pm 22.9 18.2 3.4 28 9.5 N 17 24 9 13 999.6 999.6 0.0
11/10:30pm 23.1 19.0 4.1 29 9.3 N 15 22 8 12 999.9 999.9 0.0
11/10:00pm 23.4 19.0 4.9 30 9.3 N 17 24 9 13 999.9 999.9 0.0
11/09:30pm 24.5 19.7 4.8 28 9.9 N 19 30 10 16 1000.0 1000.0 0.0
11/09:00pm 25.4 20.7 5.1 27 10.3 N 19 26 10 14 1000.3 1000.3 0.0
11/08:30pm 25.2 21.1 6.4 30 9.7 NNE 17 28 9 15 1000.6 1000.6 0.0
11/08:00pm 25.8 22.9 6.4 29 10.1 N 11 17 6 9 1002.1 1002.1 0.0
11/07:30pm 26.6 24.1 6.6 28 10.5 N 9 13 5 7 1003.3 1003.3 0.0
11/07:00pm 27.7 24.8 6.5 26 11.2 NNW 11 22 6 12 1003.2 1003.2 0.0
11/06:30pm 28.1 24.3 5.6 24 11.7 NNW 15 24 8 13 1003.7 1003.7 0.0
11/06:00pm 28.1 23.5 5.6 24 11.7 NNW 19 26 10 14 1003.8 1003.8 0.0
11/05:30pm 28.6 24.0 6.7 25 11.6 NW 20 33 11 18 1004.4 1004.4 0.0
11/05:00pm 28.3 22.8 5.8 24 11.8 NNW 24 41 13 22 1004.9 1004.9 0.0
11/04:30pm 28.3 21.6 5.8 24 11.7 NW 30 43 16 23 1005.3 1005.3 0.0
11/04:11pm 28.0 21.4 6.2 25 11.4 NNW 30 48 16 26 1005.4 1005.4 0.0
11/04:00pm 28.3 22.2 6.4 25 11.6 NW 28 43 15 23 1005.6 1005.6 0.0
11/03:30pm 27.6 21.8 6.4 26 11.1 NW 26 41 14 22 1006.1 1006.1 0.0
11/03:00pm 27.4 21.0 6.8 27 10.9 NW 30 43 16 23 1006.5 1006.5 0.0
11/02:30pm 27.5 21.7 7.9 29 10.6 NW 28 43 15 23 1007.1 1007.1 0.0
11/02:00pm 26.8 22.2 8.3 31 10.0 NNW 22 35 12 19 1007.5 1007.5 0.0
11/01:30pm 26.4 22.5 9.3 34 9.4 NNW 20 35 11 19 1008.0 1008.0 0.0
11/01:00pm 24.4 19.9 8.4 36 8.6 NNW 22 35 12 19 1008.5 1008.5 0.0
11/12:30pm 25.0 21.1 9.3 37 8.6 NW 20 32 11 17 1009.1 1009.1 0.0
11/12:00pm 24.1 20.0 7.7 35 8.7 NNW 19 30 10 16 1009.4 1009.4 0.0
11/11:30am 20.3 19.1 10.4 53 5.4 NE 7 9 4 5 1010.1 1010.1 0.0
11/11:00am 17.8 16.9 10.7 63 3.8 NE 6 9 3 5 1010.6 1010.6 0.0
11/10:30am 16.9 15.8 10.1 64 3.6 NE 6 9 3 5 1011.3 1011.3 0.0
11/10:00am 17.1 16.3 10.9 67 3.3 NNE 6 7 3 4 1011.5 1011.5 0.0
11/09:30am 15.6 14.8 11.0 74 2.5 NE 6 7 3 4 1011.8 1011.8 0.0
11/09:00am 15.4 14.6 11.0 75 2.3 NW 6 9 3 5 1012.0 1012.0 0.0
11/08:30am 14.2 14.8 13.1 93 0.6 WSW 2 7 1 4 1012.2 1012.2 0.0
11/08:00am 12.5 13.0 11.6 94 0.5 CALM 0 0 0 0 1012.0 1012.0 0.0
11/07:30am 11.5 11.7 10.7 95 0.4 CALM 0 0 0 0 1011.6 1011.6 0.0
11/07:00am 9.7 8.8 9.1 96 0.3 NNE 4 6 2 3 1011.3 1011.3 0.0
11/06:30am 8.6 8.1 8.0 96 0.3 CALM 0 2 0 1 1011.2 1011.2 0.0
11/06:00am 9.4 7.8 8.8 96 0.3 N 7 11 4 6 1010.5 1010.5 0.0
11/05:30am 9.5 7.9 8.9 96 0.3 N 7 9 4 5 1010.9 1010.9 0.0
11/05:00am 9.1 7.6 8.5 96 0.3 N 6 7 3 4 1011.3 1011.3 0.0
11/04:30am 9.4 9.1 8.6 95 0.4 CALM 0 0 0 0 1011.8 1011.8 0.0
11/04:00am 10.0 9.5 9.2 95 0.4 N 2 6 1 3 1012.1 1012.1 0.0
11/03:30am 9.7 8.7 8.9 95 0.4 NNW 4 9 2 5 1012.3 1012.3 0.0
11/03:00am 9.7 8.7 8.8 94 0.4 NW 4 4 2 2 1012.7 1012.7 0.0
11/02:30am 10.6 9.8 9.7 94 0.5 NNW 4 4 2 2 1013.0 1013.0 0.0
11/02:00am 11.1 10.4 10.2 94 0.5 NNW 4 4 2 2 1013.5 1013.5 0.0
11/01:30am 11.0 10.7 10.1 94 0.5 NW 2 4 1 2 1014.0 1014.0 0.0
11/01:00am 11.2 10.6 10.3 94 0.5 NNW 4 6 2 3 1014.7 1014.7 0.0
11/12:30am 11.2 10.6 10.3 94 0.5 NNW 4 6 2 3 1015.2 1015.2 0.0
11/12:00am 11.4 11.5 10.3 93 0.6 CALM 0 2 0 1 1015.6 1015.6 0.0
 
Date/Time
EDT
Temp
°C
App
Temp
°C
Dew
Point
°C
Rel
Hum
%
Delta-T
°C
Wind Press
QNH
hPa
Press
MSL
hPa
Rain since
9am
mm
Dir  Spd
km/h
Gust
km/h
Spd
kts
Gust
kts
10/11:30pm 11.8 11.3 10.7 93 0.6 WNW 4 6 2 3 1015.9 1015.9 0.0
10/11:00pm 12.2 11.8 11.1 93 0.6 W 4 6 2 3 1015.7 1015.7 0.0
10/10:30pm 12.8 12.6 11.7 93 0.6 WNW 4 6 2 3 1016.0 1016.0 0.0
10/10:00pm 13.5 13.4 12.2 92 0.7 W 4 7 2 4 1016.1 1016.1 0.0
10/09:30pm 13.6 13.6 12.3 92 0.7 W 4 9 2 5 1016.0 1016.0 0.0
10/09:00pm 14.1 14.2 12.8 92 0.7 WSW 4 6 2 3 1016.4 1016.4 0.0
10/08:30pm 14.0 14.1 12.7 92 0.7 WNW 4 6 2 3 1016.0 1016.0 0.0
10/08:00pm 14.1 13.7 13.0 93 0.6 WNW 7 9 4 5 1016.2 1016.2 0.0
10/07:30pm 14.3 13.9 13.0 92 0.7 WNW 7 13 4 7 1016.0 1016.0 0.0
10/07:00pm 15.0 14.0 12.3 84 1.5 NW 9 15 5 8 1015.7 1015.7 0.0
10/06:30pm 15.1 13.5 11.7 80 1.8 NW 11 19 6 10 1015.6 1015.6 0.0
10/06:00pm 15.4 13.1 11.8 79 1.9 WNW 15 20 8 11 1015.7 1015.7 0.0
10/05:30pm 15.3 13.0 11.7 79 1.9 W 15 22 8 12 1015.7 1015.7 0.0
10/05:00pm 15.4 14.7 13.1 86 1.3 W 9 15 5 8 1015.6 1015.6 0.0
10/04:30pm 16.2 14.2 11.6 74 2.5 WNW 13 24 7 13 1015.6 1015.6 0.0
10/04:00pm 16.1 13.0 11.5 74 2.5 WSW 19 28 10 15 1015.7 1015.7 0.0
10/03:30pm 16.6 13.3 10.9 69 3.1 W 19 30 10 16 1015.8 1015.8 0.0
10/03:00pm 16.0 12.8 11.4 74 2.5 W 19 30 10 16 1016.2 1016.2 0.0
10/02:30pm 17.1 13.9 11.8 71 2.9 WNW 20 28 11 15 1016.2 1016.2 0.0
10/02:00pm 16.3 13.7 11.9 75 2.4 W 17 26 9 14 1016.5 1016.5 0.0
10/01:30pm 15.2 12.2 11.8 80 1.8 W 19 30 10 16 1016.6 1016.6 0.0
10/01:00pm 15.0 12.1 12.9 87 1.2 WSW 20 32 11 17 1016.7 1016.7 0.0
10/12:30pm 16.1 12.1 10.6 70 2.9 WSW 22 35 12 19 1016.5 1016.5 0.0
10/12:00pm 16.1 13.3 12.5 79 2.0 W 19 33 10 18 1016.8 1016.8 0.0
10/11:30am 14.6 11.5 12.3 86 1.3 W 20 32 11 17 1016.9 1016.9 0.0
10/11:00am 13.7 11.7 12.6 93 0.6 WNW 15 22 8 12 1017.0 1017.0 0.0
10/10:30am 13.8 10.8 12.4 91 0.8 WNW 20 32 11 17 1016.9 1016.9 0.0
10/10:00am 13.3 10.3 12.0 92 0.7 WNW 19 30 10 16 1016.9 1016.9 0.0
10/09:30am 13.8 11.3 12.4 91 0.8 W 17 28 9 15 1016.8 1016.8 0.0
10/09:00am 13.1 9.9 11.8 92 0.7 W 20 32 11 17 1016.7 1016.7 0.0
10/08:30am 12.7 9.9 11.4 92 0.7 W 17 28 9 15 1016.3 1016.3 0.0
10/08:00am 12.2 9.8 11.3 94 0.5 W 15 24 8 13 1016.1 1016.1 0.0
10/07:30am 11.2 8.9 10.3 94 0.5 W 13 19 7 10 1016.0 1016.0 0.0
10/07:00am 11.4 8.7 10.3 93 0.6 W 15 20 8 11 1015.7 1015.7 0.0
10/06:30am 11.2 8.5 10.3 94 0.5 W 15 20 8 11 1015.1 1015.1 0.0

Latest Capital City Observations: Canberra | Sydney | Melbourne | Brisbane | Adelaide | Perth | Hobart | Darwin

Other formats

Comma delimited format used in spreadsheet applications
http://www.bom.gov.au/fwo/IDV60901/IDV60901.94857.axf

JavaScript Object Notation format (JSON) in row-major order
http://www.bom.gov.au/fwo/IDV60901/IDV60901.94857.json

Data quality

Most of these data are generated automatically and are frequently updated. Quality checks on data are not normally performed. It is possible for incorrect values to appear. Refer to information at About Latest Weather Observations and please check the disclaimer before using these data.